createdAt,value
2022-08-05T00:00:00.273Z,995.01
2022-08-05T00:05:00.115Z,995
2022-08-05T00:10:00.143Z,995.25
2022-08-05T00:15:00.094Z,995.29
2022-08-05T00:20:02.272Z,995.27
2022-08-05T00:25:00.116Z,995.26
2022-08-05T00:30:00.389Z,995.2
2022-08-05T00:35:05.887Z,995.24
2022-08-05T00:40:00.224Z,995.25
2022-08-05T00:45:00.132Z,995.25
2022-08-05T00:50:00.140Z,995.2
2022-08-05T00:55:00.118Z,995.11
2022-08-05T01:00:00.129Z,995.17
2022-08-05T01:05:00.112Z,995.23
2022-08-05T01:10:00.192Z,995.3
2022-08-05T01:15:00.093Z,995.38
2022-08-05T01:20:02.594Z,995.27
2022-08-05T01:25:00.137Z,995.25
2022-08-05T01:30:00.124Z,995.24
2022-08-05T01:35:00.086Z,995.22
2022-08-05T01:40:00.187Z,995.21
2022-08-05T01:45:00.093Z,995.13
2022-08-05T01:50:02.350Z,995.14
2022-08-05T01:55:00.439Z,995.1
2022-08-05T02:00:00.160Z,995.05
2022-08-05T02:05:00.124Z,994.99
2022-08-05T02:10:00.345Z,994.97
2022-08-05T02:15:00.101Z,994.92
2022-08-05T02:20:00.103Z,995.02
2022-08-05T02:25:00.366Z,995.01
2022-08-05T02:30:00.843Z,995.02
2022-08-05T02:35:02.066Z,995.01
2022-08-05T02:40:00.132Z,995.02
2022-08-05T02:45:00.089Z,994.93
2022-08-05T02:50:00.123Z,994.76
2022-08-05T02:55:01.613Z,994.77
2022-08-05T03:00:00.119Z,994.89
2022-08-05T03:05:00.091Z,994.85
2022-08-05T03:10:00.101Z,994.85
2022-08-05T03:15:00.086Z,995.04
2022-08-05T03:20:00.140Z,994.97
2022-08-05T03:25:02.216Z,995.08
2022-08-05T03:30:07.992Z,995.09
2022-08-05T03:35:00.107Z,995.15
2022-08-05T03:40:01.375Z,995.23
2022-08-05T03:45:01.686Z,995.26
2022-08-05T03:50:00.083Z,995.31
2022-08-05T03:55:51.400Z,995.34
2022-08-05T04:00:00.109Z,995.24
2022-08-05T04:05:00.103Z,995.33
2022-08-05T04:10:01.594Z,995.26
2022-08-05T04:15:00.087Z,995.24
2022-08-05T04:20:00.099Z,995.26
2022-08-05T04:25:00.101Z,995.25
2022-08-05T04:30:00.094Z,995.37
2022-08-05T04:35:00.088Z,995.43
2022-08-05T04:40:00.115Z,995.52
2022-08-05T04:45:01.010Z,995.66
2022-08-05T04:50:01.258Z,996.12
2022-08-05T04:55:00.135Z,996.6
2022-08-05T05:00:00.123Z,996.25
2022-08-05T05:05:01.591Z,996.45
2022-08-05T05:10:01.941Z,996.47
2022-08-05T05:15:00.084Z,996.51
2022-08-05T05:20:00.097Z,996.58
2022-08-05T05:25:01.382Z,996.7
2022-08-05T05:30:04.743Z,996.7
2022-08-05T05:35:00.100Z,996.75
2022-08-05T05:40:00.083Z,996.84
2022-08-05T05:45:00.083Z,996.87
2022-08-05T05:50:01.357Z,996.81
2022-08-05T05:55:00.102Z,996.69
2022-08-05T06:00:00.137Z,996.57
2022-08-05T06:05:00.204Z,996.62
2022-08-05T06:10:04.598Z,996.49
2022-08-05T06:15:00.083Z,996.47
2022-08-05T06:20:00.102Z,996.55
2022-08-05T06:25:00.093Z,996.42
2022-08-05T06:30:02.627Z,996.54
2022-08-05T06:35:00.096Z,996.52
2022-08-05T06:40:00.148Z,996.45
2022-08-05T06:45:00.095Z,996.47
2022-08-05T06:50:04.893Z,996.5
2022-08-05T06:55:00.097Z,996.39
2022-08-05T07:00:00.102Z,996.52
2022-08-05T07:05:00.099Z,996.82
2022-08-05T07:10:00.098Z,997.13
2022-08-05T07:15:00.080Z,997.13
2022-08-05T07:25:09.428Z,997.01
2022-08-05T07:30:22.563Z,997.22
2022-08-05T07:35:00.092Z,997.41
2022-08-05T07:40:04.874Z,997.65
2022-08-05T07:45:00.079Z,997.69
2022-08-05T07:50:00.151Z,997.72
2022-08-05T07:55:00.114Z,997.74
2022-08-05T08:00:00.144Z,997.7
2022-08-05T08:05:00.108Z,997.62
2022-08-05T08:10:00.091Z,997.77
2022-08-05T08:15:02.330Z,997.88
2022-08-05T08:20:10.579Z,998
2022-08-05T08:25:02.972Z,998.03
2022-08-05T08:30:04.806Z,998.21
2022-08-05T08:35:00.090Z,998.18
2022-08-05T08:40:00.195Z,998.01
2022-08-05T08:45:21.732Z,998.01
2022-08-05T08:50:07.923Z,998.19
2022-08-05T08:55:00.120Z,997.88
2022-08-05T09:00:00.145Z,997.69
2022-08-05T09:05:17.102Z,997.47
2022-08-05T09:10:00.098Z,997.41
2022-08-05T09:15:04.046Z,997.4
2022-08-05T09:20:02.079Z,997.43
2022-08-05T09:25:00.116Z,997.42
2022-08-05T09:30:03.376Z,997.2
2022-08-05T09:35:00.097Z,997.14
2022-08-05T09:40:00.185Z,997.11
2022-08-05T09:45:03.495Z,997.15
2022-08-05T09:50:01.819Z,997.35
2022-08-05T09:55:00.111Z,997.35
2022-08-05T10:00:01.800Z,997.34
2022-08-05T10:05:00.082Z,997.32
2022-08-05T10:10:00.314Z,997.38
2022-08-05T10:15:00.107Z,997.44
2022-08-05T10:20:03.426Z,997.43
2022-08-05T10:25:00.130Z,997.43
2022-08-05T10:30:07.293Z,997.46
2022-08-05T10:35:00.733Z,997.33
2022-08-05T10:40:04.421Z,997.4
2022-08-05T10:45:00.105Z,997.67
2022-08-05T10:50:20.915Z,997.49
2022-08-05T10:55:00.153Z,997.33
2022-08-05T11:00:01.462Z,997.34
2022-08-05T11:05:00.219Z,997.48
2022-08-05T11:10:03.846Z,997.41
2022-08-05T11:15:01.661Z,997.31
2022-08-05T11:20:09.652Z,997.34
2022-08-05T11:25:16.721Z,997.15
2022-08-05T11:30:00.115Z,997.21
2022-08-05T11:35:00.104Z,997.15
2022-08-05T11:40:00.930Z,997.11
2022-08-05T11:45:00.093Z,997.05
2022-08-05T11:50:00.100Z,997.06
2022-08-05T11:55:07.025Z,997.01
2022-08-05T12:00:00.146Z,997.06
2022-08-05T12:05:00.448Z,997.09
2022-08-05T12:10:04.457Z,996.91
2022-08-05T12:15:00.105Z,996.86
2022-08-05T12:20:17.350Z,996.81
2022-08-05T12:25:00.118Z,996.88
2022-08-05T12:30:00.111Z,996.88
2022-08-05T12:35:00.085Z,996.82
2022-08-05T12:40:03.019Z,996.73
2022-08-05T12:45:00.099Z,996.74
2022-08-05T12:50:02.620Z,996.91
2022-08-05T12:55:00.104Z,996.84
2022-08-05T13:00:09.166Z,996.97
2022-08-05T13:05:00.096Z,997.07
2022-08-05T13:10:00.103Z,997
2022-08-05T13:15:05.809Z,997.1
2022-08-05T13:20:00.095Z,997.09
2022-08-05T13:25:01.003Z,997.06
2022-08-05T13:30:33.272Z,997.01
2022-08-05T13:35:00.101Z,997.04
2022-08-05T13:40:14.964Z,997.04
2022-08-05T13:45:00.076Z,996.99
2022-08-05T13:50:00.130Z,997
2022-08-05T13:55:01.098Z,996.93
2022-08-05T14:00:01.986Z,996.93
2022-08-05T14:05:00.744Z,996.95
2022-08-05T14:10:00.127Z,996.94
2022-08-05T14:15:00.097Z,996.95
2022-08-05T14:20:04.445Z,997.01
2022-08-05T14:25:00.103Z,997.04
2022-08-05T14:30:00.091Z,997.12
2022-08-05T14:35:00.090Z,997.11
2022-08-05T14:40:00.191Z,997.03
2022-08-05T14:45:00.097Z,996.99
2022-08-05T14:50:04.845Z,997.02
2022-08-05T14:55:00.091Z,997.18
2022-08-05T15:00:00.147Z,997.1
2022-08-05T15:05:00.088Z,997.19
2022-08-05T15:10:01.479Z,997.21
2022-08-05T15:15:00.083Z,997.27
2022-08-05T15:20:00.087Z,997.32
2022-08-05T15:25:00.212Z,997.44
2022-08-05T15:30:00.110Z,997.43
2022-08-05T15:35:00.091Z,997.75
2022-08-05T15:40:42.245Z,998.05
2022-08-05T15:45:00.081Z,998.2
2022-08-05T15:50:00.166Z,998.35
2022-08-05T15:55:00.100Z,998.5
2022-08-05T16:00:00.124Z,998.74
2022-08-05T16:05:00.108Z,998.85
2022-08-05T16:10:00.093Z,999.06
2022-08-05T16:15:00.104Z,999.2
2022-08-05T16:20:03.992Z,999.26
2022-08-05T16:25:00.104Z,999.4
2022-08-05T16:30:00.113Z,999.44
2022-08-05T16:35:00.083Z,999.63
2022-08-05T16:40:05.392Z,999.68
2022-08-05T16:45:00.090Z,999.75
2022-08-05T16:50:00.102Z,999.85
2022-08-05T16:55:00.134Z,999.98
2022-08-05T17:00:01.687Z,1000.11
2022-08-05T17:05:00.116Z,1000.3
2022-08-05T17:10:00.180Z,1000.49
2022-08-05T17:15:00.116Z,1000.44
2022-08-05T17:20:00.100Z,1000.7
2022-08-05T17:25:00.384Z,1000.69
2022-08-05T17:30:00.786Z,1000.49
2022-08-05T17:35:00.107Z,1000.67
2022-08-05T17:40:00.470Z,1000.75
2022-08-05T17:45:00.109Z,1000.89
2022-08-05T17:50:03.692Z,1001
2022-08-05T17:55:00.136Z,1001.03
2022-08-05T18:00:03.900Z,1001.11
2022-08-05T18:05:00.194Z,1001.13
2022-08-05T18:10:01.953Z,1001.19
2022-08-05T18:15:00.106Z,1001.17
2022-08-05T18:20:00.110Z,1001.08
2022-08-05T18:25:00.118Z,1001.28
2022-08-05T18:30:00.120Z,1001.48
2022-08-05T18:35:00.091Z,1001.51
2022-08-05T18:40:29.976Z,1001.57
2022-08-05T18:45:00.199Z,1001.64
2022-08-05T18:50:00.465Z,1001.69
2022-08-05T18:55:00.116Z,1001.7
2022-08-05T19:00:02.045Z,1001.81
2022-08-05T19:05:01.932Z,1001.93
2022-08-05T19:10:00.163Z,1002.11
2022-08-05T19:15:02.557Z,1002.32
2022-08-05T19:20:00.094Z,1002.29
2022-08-05T19:25:00.119Z,1002.49
2022-08-05T19:30:00.141Z,1002.46
2022-08-05T19:35:00.096Z,1002.64
2022-08-05T19:40:00.213Z,1002.91
2022-08-05T19:45:00.125Z,1003.04
2022-08-05T19:50:00.162Z,1002.86
2022-08-05T19:55:00.336Z,1003.06
2022-08-05T20:00:02.222Z,1002.88
2022-08-05T20:05:00.289Z,1003.3
2022-08-05T20:10:00.146Z,1003.39
2022-08-05T20:15:00.126Z,1003.19
2022-08-05T20:20:00.107Z,1003.17
2022-08-05T20:25:00.121Z,1003.31
2022-08-05T20:30:00.158Z,1003.36
2022-08-05T20:35:00.098Z,1003.43
2022-08-05T20:40:00.270Z,1003.77
2022-08-05T20:45:00.735Z,1003.64
2022-08-05T20:50:00.102Z,1003.83
2022-08-05T20:55:54.492Z,1004.04
2022-08-05T21:00:10.962Z,1004.16
2022-08-05T21:05:01.245Z,1004.16
2022-08-05T21:10:00.154Z,1004.22
2022-08-05T21:15:00.111Z,1004.04
2022-08-05T21:20:03.076Z,1004.12
2022-08-05T21:25:00.112Z,1003.76
2022-08-05T21:30:01.882Z,1003.81
2022-08-05T21:35:07.093Z,1003.86
2022-08-05T21:40:00.115Z,1004.17
2022-08-05T21:45:00.107Z,1004.09
2022-08-05T21:50:01.338Z,1004.13
2022-08-05T21:55:06.101Z,1004.26
2022-08-05T22:00:04.910Z,1004.19
2022-08-05T22:05:00.145Z,1004.02
2022-08-05T22:10:00.175Z,1003.78
2022-08-05T22:15:00.132Z,1003.85
2022-08-05T22:20:11.367Z,1004.07
2022-08-05T22:25:00.077Z,1004.37
2022-08-05T22:30:00.100Z,1004.54
2022-08-05T22:35:00.102Z,1004.68
2022-08-05T22:40:00.285Z,1004.71
2022-08-05T22:45:00.090Z,1004.68
2022-08-05T22:50:18.545Z,1004.75
2022-08-05T22:55:00.152Z,1005.05
2022-08-05T23:00:00.118Z,1005.02
2022-08-05T23:05:01.394Z,1004.76
2022-08-05T23:10:01.859Z,1004.73
2022-08-05T23:15:00.159Z,1004.8
2022-08-05T23:20:00.117Z,1004.81
2022-08-05T23:25:00.104Z,1004.89
2022-08-05T23:30:00.111Z,1005.05
2022-08-05T23:35:00.100Z,1005.15
2022-08-05T23:40:00.181Z,1005.21
2022-08-05T23:45:00.102Z,1005.09
2022-08-05T23:50:00.111Z,1005.02
2022-08-05T23:55:00.085Z,1005.19
